Time;durP1;ratioP1;P1;durP2;ratioP2;P2;SDS_P1;SDS_P2;PMS_P1;PMS_P2;Temp;Humidity;BMP_temperature;BMP_pressure;BME280_temperature;BME280_humidity;BME280_pressure;Samples;Min_cycle;Max_cycle;Signal;HPM_P1;HPM_P2
2024/02/06 00:02:28;;;;;;;;;;;;;;;26.98;38.89;94701.44;5052999;28;8701;-40
2024/02/06 00:04:55;;;;;;;;;;;;;;;26.99;38.60;94702.97;5056373;28;6913;-40
2024/02/06 00:07:23;;;;;;;;;;;;;;;27.01;38.73;94697.69;5072779;28;9108;-40
2024/02/06 00:09:58;;;;;;;;;;;;;;;26.99;38.67;94689.88;5069479;28;7040;-40
2024/02/06 00:12:26;;;;;;;;;;;;;;;27.01;38.52;94692.16;5054895;28;7168;-41
2024/02/06 00:14:59;;;;;;;;;;;;;;;26.98;38.56;94693.94;5071612;28;8753;-41
2024/02/06 00:17:25;;;;;;;;;;;;;;;26.98;38.39;94687.66;5053485;28;9076;-41
2024/02/06 00:19:52;;;;;;;;;;;;;;;26.94;38.72;94681.66;5056025;28;6985;-42
2024/02/06 00:22:18;;;;;;;;;;;;;;;26.96;38.21;94687.41;5061570;28;7265;-41
2024/02/06 00:24:44;;;;;;;;;;;;;;;26.96;38.76;94676.38;5055838;28;7264;-40
2024/02/06 00:27:12;;;;;;;;;;;;;;;26.98;38.08;94684.88;5051784;28;7052;-40
2024/02/06 00:29:41;;;;;;;;;;;;;;;26.96;38.06;94679.88;5062881;28;9075;-41
2024/02/06 00:32:11;;;;;;;;;;;;;;;26.96;38.74;94681.88;5055619;28;7189;-42
2024/02/06 00:34:39;;;;;;;;;;;;;;;26.92;39.00;94685.66;5053958;28;7555;-40
2024/02/06 00:37:08;;;;;;;;;;;;;;;26.94;38.30;94681.66;5053300;28;7329;-41
2024/02/06 00:39:37;;;;;;;;;;;;;;;26.91;38.61;94683.44;5054357;28;7154;-40
2024/02/06 00:42:03;;;;;;;;;;;;;;;26.94;38.30;94681.66;5068483;28;7355;-41
2024/02/06 00:44:29;;;;;;;;;;;;;;;26.93;38.39;94689.19;5065037;28;9028;-41
2024/02/06 00:46:55;;;;;;;;;;;;;;;26.92;38.63;94687.69;5051308;28;8554;-40
2024/02/06 00:49:25;;;;;;;;;;;;;;;26.92;38.42;94682.91;5058909;28;9304;-45
2024/02/06 00:51:56;;;;;;;;;;;;;;;26.93;38.69;94697.47;5054298;28;7136;-41
2024/02/06 00:54:25;;;;;;;;;;;;;;;26.91;38.26;94691.72;5055279;28;6986;-42
2024/02/06 00:56:51;;;;;;;;;;;;;;;26.90;38.51;94693.72;5055562;28;7695;-41
2024/02/06 00:59:16;;;;;;;;;;;;;;;26.92;38.67;94695.97;5072809;28;6983;-41
2024/02/06 01:01:46;;;;;;;;;;;;;;;26.90;38.45;94692.97;5038681;28;7459;-40
2024/02/06 01:04:21;;;;;;;;;;;;;;;26.88;38.28;94695.50;5065927;28;9062;-42
2024/02/06 01:06:49;;;;;;;;;;;;;;;26.90;38.57;94702.00;5050754;28;7064;-40
2024/02/06 01:09:18;;;;;;;;;;;;;;;26.89;38.60;94699.75;5058001;28;7086;-41
2024/02/06 01:11:47;;;;;;;;;;;;;;;26.90;38.09;94701.25;5058560;28;6997;-43
2024/02/06 01:14:22;;;;;;;;;;;;;;;26.88;38.28;94693.47;5076425;28;9117;-40
2024/02/06 01:16:48;;;;;;;;;;;;;;;26.87;38.34;94694.75;5058437;28;6994;-40
2024/02/06 01:19:40;;;;;;;;;;;;;;;26.90;38.40;94696.47;5047920;28;7203;-42
2024/02/06 01:22:07;;;;;;;;;;;;;;;26.90;38.31;94706.78;4978382;28;7226;-41
2024/02/06 01:24:33;;;;;;;;;;;;;;;26.90;37.87;94698.50;4978558;28;7810;-40
2024/02/06 01:27:03;;;;;;;;;;;;;;;26.87;38.26;94688.47;4994986;28;7064;-41
2024/02/06 01:29:33;;;;;;;;;;;;;;;26.84;38.27;94690.25;4993541;28;7211;-40
2024/02/06 01:31:59;;;;;;;;;;;;;;;26.88;37.95;94690.72;4974506;28;6989;-57
2024/02/06 01:34:41;;;;;;;;;;;;;;;26.88;38.11;94687.22;4994579;28;6974;-56
2024/02/06 01:37:09;;;;;;;;;;;;;;;26.84;38.45;94673.69;4994223;28;7313;-57
2024/02/06 01:39:39;;;;;;;;;;;;;;;26.87;38.29;94689.22;4976665;28;7223;-57
2024/02/06 01:42:23;;;;;;;;;;;;;;;26.86;38.34;94681.47;4975000;28;7266;-57
2024/02/06 01:45:02;;;;;;;;;;;;;;;26.86;37.94;94684.22;4975740;28;7238;-56
2024/02/06 01:47:28;;;;;;;;;;;;;;;26.83;38.40;94676.97;4991818;28;8772;-57
2024/02/06 01:50:16;;;;;;;;;;;;;;;26.85;38.23;94674.44;4981055;28;7424;-57
2024/02/06 01:52:48;;;;;;;;;;;;;;;26.84;38.44;94673.69;4977850;28;7153;-56
2024/02/06 01:55:14;;;;;;;;;;;;;;;26.84;38.29;94672.94;4994486;28;7521;-57
2024/02/06 01:57:43;;;;;;;;;;;;;;;26.83;38.03;94665.94;4991039;28;9012;-56
2024/02/06 02:00:11;;;;;;;;;;;;;;;26.84;38.21;94664.66;5070455;28;8157;-57
2024/02/06 02:02:59;;;;;;;;;;;;;;;26.82;38.29;94654.13;5069116;28;9095;-57
2024/02/06 02:05:30;;;;;;;;;;;;;;;26.83;38.27;94658.41;5066882;28;7325;-57
2024/02/06 02:07:56;;;;;;;;;;;;;;;26.84;37.95;94654.38;5049133;28;7385;-57
2024/02/06 02:10:32;;;;;;;;;;;;;;;26.85;38.02;94652.38;5075602;28;6997;-57
2024/02/06 02:13:08;;;;;;;;;;;;;;;26.84;37.90;94642.56;5069698;28;7259;-56
2024/02/06 02:15:34;;;;;;;;;;;;;;;26.84;38.05;94639.81;5054418;28;7573;-56
2024/02/06 02:18:07;;;;;;;;;;;;;;;26.83;38.06;94641.09;5057037;28;6955;-56
2024/02/06 02:20:33;;;;;;;;;;;;;;;26.84;37.77;94639.81;5056078;28;6997;-56
2024/02/06 02:23:05;;;;;;;;;;;;;;;26.79;38.15;94638.63;5070196;28;9063;-56
2024/02/06 02:25:34;;;;;;;;;;;;;;;26.80;38.15;94640.09;5057535;28;8831;-57
2024/02/06 02:28:07;;;;;;;;;;;;;;;26.82;38.06;94636.81;5074398;28;7208;-56
2024/02/06 02:30:38;;;;;;;;;;;;;;;26.77;38.26;94627.31;5057274;28;7259;-57
2024/02/06 02:33:08;;;;;;;;;;;;;;;26.80;38.13;94626.31;5057507;28;6988;-57
2024/02/06 02:35:47;;;;;;;;;;;;;;;26.78;37.83;94630.84;5038233;28;9305;-57
2024/02/06 02:38:18;;;;;;;;;;;;;;;26.80;38.00;94633.81;5071365;28;7213;-57
2024/02/06 02:40:53;;;;;;;;;;;;;;;26.78;38.09;94639.09;5056819;28;7267;-56
2024/02/06 02:43:21;;;;;;;;;;;;;;;26.76;37.70;94630.59;5055455;28;7083;-39
2024/02/06 02:46:08;;;;;;;;;;;;;;;26.78;37.92;94625.31;5057202;28;6969;-39
2024/02/06 02:48:34;;;;;;;;;;;;;;;26.78;38.04;94625.31;5066885;28;9608;-39
2024/02/06 02:51:00;;;;;;;;;;;;;;;26.76;38.12;94620.31;5072446;28;8935;-39
2024/02/06 02:53:33;;;;;;;;;;;;;;;26.77;37.91;94618.31;5065852;28;7267;-39
2024/02/06 02:55:59;;;;;;;;;;;;;;;26.77;38.20;94621.06;5044716;28;8488;-39
2024/02/06 02:58:25;;;;;;;;;;;;;;;26.76;38.19;94608.53;5056033;28;8706;-40
2024/02/06 03:00:53;;;;;;;;;;;;;;;26.77;38.16;94612.78;5053921;28;6994;-40
2024/02/06 03:03:21;;;;;;;;;;;;;;;26.77;38.08;94612.78;5053923;28;7248;-39
2024/02/06 03:05:52;;;;;;;;;;;;;;;26.79;38.15;94610.25;5054476;28;9212;-40
2024/02/06 03:08:18;;;;;;;;;;;;;;;26.76;37.76;94608.53;5054684;28;6979;-39
2024/02/06 03:10:45;;;;;;;;;;;;;;;26.75;37.94;94607.75;5055437;28;7306;-39
2024/02/06 03:13:22;;;;;;;;;;;;;;;26.75;37.64;94604.28;5054114;28;7003;-39
2024/02/06 03:15:48;;;;;;;;;;;;;;;26.74;38.35;94605.53;5038752;28;8994;-39
2024/02/06 03:18:15;;;;;;;;;;;;;;;26.74;37.90;94600.00;5052660;28;7336;-40
2024/02/06 03:20:43;;;;;;;;;;;;;;;26.73;37.61;94599.25;5055234;28;7275;-40
2024/02/06 03:23:11;;;;;;;;;;;;;;;26.75;37.88;94593.97;5056470;28;7063;-40
2024/02/06 03:25:52;;;;;;;;;;;;;;;26.76;38.20;94597.47;5055260;28;7336;-39
2024/02/06 03:28:25;;;;;;;;;;;;;;;26.74;37.94;94598.00;5054923;28;7215;-40
2024/02/06 03:30:55;;;;;;;;;;;;;;;26.73;37.90;94593.72;5074296;28;9150;-39
2024/02/06 03:33:24;;;;;;;;;;;;;;;26.74;37.95;94597.25;5069161;28;9112;-40
2024/02/06 03:35:52;;;;;;;;;;;;;;;26.72;37.83;94594.97;5073216;28;9986;-39
2024/02/06 03:38:23;;;;;;;;;;;;;;;26.73;38.26;94590.97;5072480;28;7061;-40
2024/02/06 03:41:21;;;;;;;;;;;;;;;26.73;38.10;94595.78;5072894;28;7313;-39
2024/02/06 03:43:49;;;;;;;;;;;;;;;26.74;37.95;94594.50;4978265;28;9013;-41
2024/02/06 03:46:19;;;;;;;;;;;;;;;26.75;37.97;94593.97;4997801;28;7161;-39
2024/02/06 03:48:57;;;;;;;;;;;;;;;26.73;38.17;94590.97;4987353;28;7070;-39
2024/02/06 03:51:23;;;;;;;;;;;;;;;26.73;37.60;94593.00;4999569;28;7184;-39
2024/02/06 03:53:49;;;;;;;;;;;;;;;26.73;38.01;94599.25;4994225;28;8749;-39
2024/02/06 03:56:16;;;;;;;;;;;;;;;26.73;38.19;94602.00;4998221;28;7097;-39
2024/02/06 03:58:45;;;;;;;;;;;;;;;26.72;37.83;94596.97;4978918;28;6985;-39
2024/02/06 04:01:26;;;;;;;;;;;;;;;26.71;37.89;94601.00;4986842;28;7622;-39
2024/02/06 04:04:02;;;;;;;;;;;;;;;26.73;37.56;94595.78;4991847;28;7029;-40
2024/02/06 04:06:28;;;;;;;;;;;;;;;26.70;38.10;94594.00;4992947;28;7021;-39
2024/02/06 04:08:54;;;;;;;;;;;;;;;26.68;38.09;94591.00;4986756;28;7055;-41
2024/02/06 04:11:20;;;;;;;;;;;;;;;26.70;38.20;94591.22;4995709;28;6977;-40
2024/02/06 04:13:48;;;;;;;;;;;;;;;26.70;37.94;94588.47;4996286;28;9325;-39
2024/02/06 04:16:17;;;;;;;;;;;;;;;26.73;37.95;94598.53;4992583;28;7046;-39
2024/02/06 04:18:52;;;;;;;;;;;;;;;26.73;37.73;94590.25;5000781;28;7287;-39
2024/02/06 04:21:25;;;;;;;;;;;;;;;26.73;38.46;94590.25;5053628;28;6994;-39
2024/02/06 04:23:52;;;;;;;;;;;;;;;26.68;38.00;94583.47;5055925;28;6987;-39
2024/02/06 04:26:21;;;;;;;;;;;;;;;26.71;38.14;94598.22;5047229;28;7002;-39
2024/02/06 04:28:50;;;;;;;;;;;;;;;26.72;37.76;94588.72;5054896;28;9069;-41
2024/02/06 04:31:21;;;;;;;;;;;;;;;26.73;38.16;94595.78;5058642;28;7103;-39
2024/02/06 04:33:50;;;;;;;;;;;;;;;26.72;38.02;94602.50;5063982;28;7240;-40
2024/02/06 04:36:24;;;;;;;;;;;;;;;26.69;37.93;94595.25;5070500;28;6970;-39
2024/02/06 04:39:06;;;;;;;;;;;;;;;26.68;37.81;94593.75;5067701;28;9431;-40
2024/02/06 04:41:36;;;;;;;;;;;;;;;26.69;37.91;94606.28;5059436;28;7017;-40
2024/02/06 04:44:04;;;;;;;;;;;;;;;26.65;37.80;94595.53;5055054;28;7251;-40
2024/02/06 04:46:34;;;;;;;;;;;;;;;26.67;38.25;94598.53;5058402;28;7734;-39
2024/02/06 04:49:00;;;;;;;;;;;;;;;26.68;37.70;94596.53;5075627;28;8849;-40
2024/02/06 04:51:33;;;;;;;;;;;;;;;26.66;37.84;94586.00;5050922;28;9123;-39
2024/02/06 04:53:58;;;;;;;;;;;;;;;26.66;37.79;94580.50;5056836;28;7012;-39
2024/02/06 04:56:25;;;;;;;;;;;;;;;26.65;37.95;94590.00;5054689;28;7292;-39
2024/02/06 04:58:51;;;;;;;;;;;;;;;26.65;37.96;94589.25;5057236;28;9177;-39
2024/02/06 05:01:25;;;;;;;;;;;;;;;26.67;37.71;94590.25;5054890;28;7290;-39
2024/02/06 05:03:51;;;;;;;;;;;;;;;26.64;37.66;94577.47;5074648;28;6990;-39
2024/02/06 05:06:17;;;;;;;;;;;;;;;26.66;38.37;94580.50;5065512;28;7247;-40
2024/02/06 05:08:44;;;;;;;;;;;;;;;26.66;37.74;94574.22;5053861;28;7457;-40
2024/02/06 05:11:11;;;;;;;;;;;;;;;26.64;37.46;94573.97;5071387;28;9253;-40
2024/02/06 05:13:37;;;;;;;;;;;;;;;26.65;38.06;94583.75;5068624;28;7401;-40
2024/02/06 05:16:04;;;;;;;;;;;;;;;26.62;37.92;94579.25;5071333;28;7342;-40
2024/02/06 05:18:30;;;;;;;;;;;;;;;26.62;37.75;94584.78;5058282;28;8490;-40
2024/02/06 05:21:24;;;;;;;;;;;;;;;26.64;37.68;94576.75;5076246;28;7208;-40
2024/02/06 05:24:04;;;;;;;;;;;;;;;26.64;37.60;94577.47;4975337;28;7067;-39
2024/02/06 05:26:36;;;;;;;;;;;;;;;26.64;37.52;94571.94;4972777;28;7205;-41
2024/02/06 05:29:23;;;;;;;;;;;;;;;26.62;37.45;94563.44;4975278;28;7160;-40
2024/02/06 05:31:57;;;;;;;;;;;;;;;26.63;38.15;94578.75;4959264;28;7277;-39
2024/02/06 05:34:25;;;;;;;;;;;;;;;26.60;37.61;94576.28;4969136;28;9208;-39
2024/02/06 05:36:53;;;;;;;;;;;;;;;26.57;37.95;94582.81;4958417;28;7186;-40
2024/02/06 05:39:32;;;;;;;;;;;;;;;26.58;38.27;94581.53;4974381;28;7171;-39
2024/02/06 05:42:06;;;;;;;;;;;;;;;26.54;37.83;94576.28;4971028;28;7227;-40
2024/02/06 05:44:32;;;;;;;;;;;;;;;26.48;37.60;94588.63;4972436;28;7158;-40
2024/02/06 05:47:07;;;;;;;;;;;;;;;26.45;38.06;94587.63;4972558;28;7484;-41
2024/02/06 05:49:33;;;;;;;;;;;;;;;26.45;38.26;94586.88;4956867;28;7262;-39
2024/02/06 05:51:59;;;;;;;;;;;;;;;26.44;38.15;94579.88;4970687;28;7311;-39
2024/02/06 05:54:28;;;;;;;;;;;;;;;26.45;37.75;94573.84;4973928;28;7029;-39
2024/02/06 05:56:54;;;;;;;;;;;;;;;26.49;37.99;94585.34;4972626;28;8951;-40
2024/02/06 05:59:22;;;;;;;;;;;;;;;26.52;38.36;94584.34;4985087;28;9087;-39
2024/02/06 06:01:54;;;;;;;;;;;;;;;26.53;37.82;94583.09;5071956;28;9242;-40
2024/02/06 06:04:27;;;;;;;;;;;;;;;26.53;37.40;94577.56;5071772;28;7295;-40
2024/02/06 06:07:02;;;;;;;;;;;;;;;26.51;38.18;94582.09;5065186;28;7164;-40
2024/02/06 06:09:38;;;;;;;;;;;;;;;26.53;37.76;94582.34;5053297;28;8413;-40
2024/02/06 06:12:15;;;;;;;;;;;;;;;26.54;38.06;94586.56;5056691;28;7323;-40
2024/02/06 06:14:44;;;;;;;;;;;;;;;26.54;37.97;94581.06;5056629;28;6983;-41
2024/02/06 06:17:12;;;;;;;;;;;;;;;26.58;37.99;94585.03;5074384;28;7495;-40
2024/02/06 06:19:45;;;;;;;;;;;;;;;26.56;38.00;94582.03;5075191;28;7238;-40
2024/02/06 06:22:12;;;;;;;;;;;;;;;26.57;38.00;94582.81;5060982;28;9153;-41
2024/02/06 06:24:53;;;;;;;;;;;;;;;26.58;37.98;94584.28;5068991;28;7222;-42
2024/02/06 06:27:23;;;;;;;;;;;;;;;26.59;37.97;94591.31;5050043;28;9083;-39
2024/02/06 06:29:55;;;;;;;;;;;;;;;26.59;38.09;94594.81;5069325;28;7272;-41
2024/02/06 06:32:26;;;;;;;;;;;;;;;26.64;37.79;94599.53;5057735;28;7905;-41
2024/02/06 06:34:55;;;;;;;;;;;;;;;26.65;36.79;94603.81;5070335;28;9330;-42
2024/02/06 06:37:21;;;;;;;;;;;;;;;26.66;36.99;94612.84;5057153;28;6987;-41
2024/02/06 06:39:48;;;;;;;;;;;;;;;26.64;37.06;94604.31;5056716;28;7270;-40
2024/02/06 06:42:15;;;;;;;;;;;;;;;26.61;36.93;94597.81;5072459;28;7270;-40
2024/02/06 06:44:41;;;;;;;;;;;;;;;26.62;36.44;94601.34;5069695;28;9031;-41
2024/02/06 06:47:08;;;;;;;;;;;;;;;26.59;36.55;94596.84;5052442;28;7151;-40
2024/02/06 06:49:42;;;;;;;;;;;;;;;26.60;36.88;94601.09;5056137;28;7593;-41
2024/02/06 06:52:21;;;;;;;;;;;;;;;26.58;37.05;94607.09;5073891;28;7282;-39
2024/02/06 06:54:47;;;;;;;;;;;;;;;26.61;37.03;94614.38;5052584;28;7926;-41
2024/02/06 06:57:12;;;;;;;;;;;;;;;26.60;37.28;94617.66;5047225;28;7625;-39
2024/02/06 06:59:39;;;;;;;;;;;;;;;26.59;36.35;94621.66;5047821;28;6970;-40
2024/02/06 07:02:19;;;;;;;;;;;;;;;26.60;36.67;94614.91;5056167;28;9013;-40
2024/02/06 07:04:46;;;;;;;;;;;;;;;26.58;37.24;94622.91;5072768;28;7410;-41
2024/02/06 07:07:26;;;;;;;;;;;;;;;26.59;36.81;94625.19;5074989;28;7280;-44
2024/02/06 07:09:51;;;;;;;;;;;;;;;26.57;37.26;94632.47;5070208;28;9147;-41
2024/02/06 07:12:25;;;;;;;;;;;;;;;26.54;36.74;94622.44;5063724;28;9141;-37
2024/02/06 07:14:51;;;;;;;;;;;;;;;26.55;37.29;94624.69;5073139;28;7002;-37
2024/02/06 07:17:17;;;;;;;;;;;;;;;26.54;37.13;94627.94;5055744;28;7393;-37
2024/02/06 07:19:43;;;;;;;;;;;;;;;26.56;37.05;94636.47;5054872;28;7198;-37
2024/02/06 07:22:10;;;;;;;;;;;;;;;26.58;37.04;94639.47;5049647;28;7292;-37
2024/02/06 07:25:06;;;;;;;;;;;;;;;26.58;36.59;94642.22;5057678;28;9094;-37
2024/02/06 07:27:48;;;;;;;;;;;;;;;26.58;36.87;94648.50;4982165;28;7248;-37
2024/02/06 07:30:15;;;;;;;;;;;;;;;26.55;37.13;94646.00;5006032;28;7055;-37
2024/02/06 07:33:19;;;;;;;;;;;;;;;26.54;37.00;94652.78;4991019;28;7001;-37
2024/02/06 07:36:15;;;;;;;;;;;;;;;26.54;37.19;94659.06;5011964;28;7655;-37
2024/02/06 07:38:57;;;;;;;;;;;;;;;26.55;36.87;94665.31;4953931;28;7024;-37
2024/02/06 07:41:58;;;;;;;;;;;;;;;26.54;37.22;94666.56;4947810;28;7031;-37
2024/02/06 07:44:40;;;;;;;;;;;;;;;26.53;37.47;94665.84;4912066;29;9199;-37
2024/02/06 07:48:05;;;;;;;;;;;;;;;26.54;37.26;94664.56;4876541;29;9155;-37
2024/02/06 07:50:43;;;;;;;;;;;;;;;26.52;37.67;94663.56;4902115;29;9405;-37
2024/02/06 07:53:13;;;;;;;;;;;;;;;26.53;37.37;94671.38;4902840;29;7279;-37
2024/02/06 07:55:42;;;;;;;;;;;;;;;26.53;37.30;94665.09;4882565;29;7059;-37
2024/02/06 07:58:08;;;;;;;;;;;;;;;26.52;37.51;94666.34;4899971;29;7048;-37
2024/02/06 08:00:39;;;;;;;;;;;;;;;26.50;37.64;94668.84;4905881;29;9434;-37
2024/02/06 08:03:18;;;;;;;;;;;;;;;26.52;37.06;94675.38;4896454;29;7219;-37
2024/02/06 08:06:06;;;;;;;;;;;;;;;26.54;37.38;94680.38;4939032;29;7084;-37
2024/02/06 08:08:42;;;;;;;;;;;;;;;26.54;37.15;94683.13;4929871;29;7245;-37
2024/02/06 08:11:10;;;;;;;;;;;;;;;26.53;37.47;94676.13;4941202;28;7317;-37
2024/02/06 08:13:38;;;;;;;;;;;;;;;26.52;37.46;94680.13;4941205;28;7001;-37
2024/02/06 08:16:23;;;;;;;;;;;;;;;26.53;37.14;94682.41;5009597;28;8733;-37
2024/02/06 08:19:03;;;;;;;;;;;;;;;26.52;37.92;94678.13;4988090;28;7100;-37
2024/02/06 08:21:31;;;;;;;;;;;;;;;26.53;37.46;94684.41;5059918;28;7198;-41
2024/02/06 08:24:00;;;;;;;;;;;;;;;26.50;37.56;94683.41;5052955;28;7262;-41
2024/02/06 08:26:36;;;;;;;;;;;;;;;26.53;37.71;94692.69;5075191;28;7141;-41
2024/02/06 08:29:09;;;;;;;;;;;;;;;26.53;37.66;94687.16;5056714;28;9087;-41
2024/02/06 08:31:49;;;;;;;;;;;;;;;26.52;37.78;94691.16;5073569;28;7268;-42
2024/02/06 08:34:19;;;;;;;;;;;;;;;26.51;37.87;94690.41;5055874;28;6981;-42
2024/02/06 08:36:56;;;;;;;;;;;;;;;26.52;37.90;94691.16;5075139;28;7556;-41
2024/02/06 08:39:26;;;;;;;;;;;;;;;26.54;37.79;94694.16;5077812;28;9559;-43
2024/02/06 08:42:10;;;;;;;;;;;;;;;26.55;37.81;94692.91;5077163;28;8643;-41
2024/02/06 08:44:37;;;;;;;;;;;;;;;26.51;37.71;94690.41;5076703;28;7037;-41
2024/02/06 08:47:06;;;;;;;;;;;;;;;26.52;37.91;94700.19;5077160;28;7250;-41
2024/02/06 08:49:37;;;;;;;;;;;;;;;26.54;37.86;94716.22;5076749;28;9612;-41
2024/02/06 08:52:33;;;;;;;;;;;;;;;26.55;37.81;94712.22;5059624;28;9232;-41
2024/02/06 08:54:59;;;;;;;;;;;;;;;26.55;37.69;94707.47;4995611;28;9669;-41
2024/02/06 08:57:26;;;;;;;;;;;;;;;26.55;38.00;94701.94;4984275;28;7209;-41
2024/02/06 08:59:51;;;;;;;;;;;;;;;26.55;38.16;94701.19;4980558;28;6986;-43
2024/02/06 09:02:19;;;;;;;;;;;;;;;26.57;37.66;94707.69;4990721;28;6973;-41
2024/02/06 09:04:48;;;;;;;;;;;;;;;26.56;37.85;94699.91;4993514;28;9125;-42
2024/02/06 09:07:16;;;;;;;;;;;;;;;26.56;37.52;94695.16;4992893;28;7200;-41
2024/02/06 09:09:46;;;;;;;;;;;;;;;26.59;37.75;94696.16;4995759;28;7149;-41
2024/02/06 09:12:12;;;;;;;;;;;;;;;26.59;38.19;94693.38;4995517;28;7094;-41
2024/02/06 09:14:52;;;;;;;;;;;;;;;26.57;37.83;94698.66;4985690;28;7159;-41
2024/02/06 09:17:28;;;;;;;;;;;;;;;26.59;37.82;94693.38;4999188;28;7198;-42
2024/02/06 09:19:56;;;;;;;;;;;;;;;26.61;37.40;94694.38;4994497;28;9306;-41
2024/02/06 09:22:22;;;;;;;;;;;;;;;26.61;37.93;94699.16;4992999;28;7777;-42
2024/02/06 09:24:50;;;;;;;;;;;;;;;26.61;38.01;94699.91;4991409;28;7142;-41
2024/02/06 09:27:18;;;;;;;;;;;;;;;26.59;38.53;94696.91;4960321;28;7072;-43
2024/02/06 09:30:12;;;;;;;;;;;;;;;26.60;38.16;94703.19;4986740;28;9034;-42
2024/02/06 09:32:53;;;;;;;;;;;;;;;26.62;38.32;94701.38;5073834;28;7058;-39
2024/02/06 09:35:18;;;;;;;;;;;;;;;26.63;37.97;94700.13;5074702;28;7067;-39
2024/02/06 09:37:53;;;;;;;;;;;;;;;26.64;38.33;94698.13;5058504;28;9419;-40
2024/02/06 09:40:38;;;;;;;;;;;;;;;26.68;37.94;94701.38;5074497;28;9135;-39
2024/02/06 09:43:16;;;;;;;;;;;;;;;26.69;37.92;94705.63;5058534;28;9043;-39
2024/02/06 09:45:58;;;;;;;;;;;;;;;26.68;38.04;94702.13;5054403;28;9483;-39
2024/02/06 09:48:39;;;;;;;;;;;;;;;26.70;38.00;94698.84;5066287;28;9140;-39
2024/02/06 09:51:09;;;;;;;;;;;;;;;26.70;37.46;94691.31;5066989;28;7062;-39
2024/02/06 09:53:36;;;;;;;;;;;;;;;26.70;38.19;94696.84;5065555;28;9501;-39
2024/02/06 09:56:05;;;;;;;;;;;;;;;26.72;37.78;94701.84;5057564;28;7414;-39
2024/02/06 09:58:32;;;;;;;;;;;;;;;26.74;37.69;94699.34;5075767;28;7236;-40
2024/02/06 10:01:35;;;;;;;;;;;;;;;26.77;37.70;94701.81;5062424;28;7405;-39
2024/02/06 10:04:16;;;;;;;;;;;;;;;26.77;37.33;94701.09;4997503;28;7033;-41
2024/02/06 10:06:46;;;;;;;;;;;;;;;26.77;37.72;94701.09;5013179;28;9385;-41
2024/02/06 10:09:35;;;;;;;;;;;;;;;26.75;37.13;94701.59;4993915;28;9344;-40
2024/02/06 10:12:21;;;;;;;;;;;;;;;26.77;37.47;94701.81;5012427;28;9949;-41
2024/02/06 10:14:47;;;;;;;;;;;;;;;26.78;36.84;94708.09;4997717;28;9084;-42
2024/02/06 10:17:14;;;;;;;;;;;;;;;26.77;37.38;94706.63;5010526;28;6987;-40
2024/02/06 10:19:42;;;;;;;;;;;;;;;26.77;37.56;94707.34;5011001;28;7392;-39
2024/02/06 10:22:18;;;;;;;;;;;;;;;26.78;37.56;94703.34;5012639;28;7137;-39
2024/02/06 10:24:45;;;;;;;;;;;;;;;26.80;37.65;94709.09;4997137;28;7186;-40
2024/02/06 10:27:15;;;;;;;;;;;;;;;26.82;37.58;94708.56;4996189;28;9193;-39
2024/02/06 10:29:41;;;;;;;;;;;;;;;26.81;37.10;94707.09;5011833;28;7295;-40
2024/02/06 10:32:21;;;;;;;;;;;;;;;26.81;37.34;94712.59;4996068;28;9003;-39
2024/02/06 10:35:05;;;;;;;;;;;;;;;26.82;37.46;94711.34;4996192;28;9072;-39
2024/02/06 10:37:38;;;;;;;;;;;;;;;26.80;37.46;94708.34;4998747;28;7302;-39
2024/02/06 10:40:11;;;;;;;;;;;;;;;26.81;37.38;94702.31;5036623;28;6978;-41
2024/02/06 10:42:39;;;;;;;;;;;;;;;26.82;37.26;94700.28;5053012;28;7487;-39
2024/02/06 10:45:09;;;;;;;;;;;;;;;26.79;37.59;94691.06;5073400;28;9617;-39
2024/02/06 10:48:26;;;;;;;;;;;;;;;26.81;37.21;94690.53;5057839;28;9160;-39
2024/02/06 10:51:03;;;;;;;;;;;;;;;26.79;37.50;94680.00;4991051;28;9045;-40
2024/02/06 10:53:29;;;;;;;;;;;;;;;26.84;37.60;94678.44;4972889;28;7458;-39
2024/02/06 10:56:05;;;;;;;;;;;;;;;26.85;37.20;94679.97;4988023;28;9338;-39
2024/02/06 10:58:41;;;;;;;;;;;;;;;26.86;37.56;94678.72;4967173;28;7175;-39
2024/02/06 11:01:12;;;;;;;;;;;;;;;26.86;37.33;94678.72;4989014;28;9456;-39
2024/02/06 11:04:00;;;;;;;;;;;;;;;26.89;37.68;94681.19;4993280;28;9236;-39
2024/02/06 11:06:49;;;;;;;;;;;;;;;26.91;37.31;94683.44;4946616;28;7110;-39
2024/02/06 11:09:24;;;;;;;;;;;;;;;26.93;37.56;94672.63;4979188;28;8076;-40
2024/02/06 11:11:54;;;;;;;;;;;;;;;26.94;37.03;94671.38;4988007;28;7394;-40
2024/02/06 11:14:24;;;;;;;;;;;;;;;26.95;37.39;94664.56;4988795;28;7322;-40
2024/02/06 11:16:59;;;;;;;;;;;;;;;26.94;37.54;94660.34;4987808;28;9344;-39
2024/02/06 11:19:35;;;;;;;;;;;;;;;26.98;37.41;94660.03;4972145;28;7199;-39
2024/02/06 11:22:40;;;;;;;;;;;;;;;26.99;37.36;94658.78;4973560;28;7656;-40
2024/02/06 11:25:20;;;;;;;;;;;;;;;26.98;37.41;94652.50;4957663;28;7206;-39
2024/02/06 11:27:56;;;;;;;;;;;;;;;26.98;37.42;94647.00;4967912;28;7348;-39
2024/02/06 11:30:25;;;;;;;;;;;;;;;26.99;37.28;94645.00;4991402;28;6872;-39
2024/02/06 11:33:02;;;;;;;;;;;;;;;26.97;37.35;94642.72;4994058;28;6925;-39
2024/02/06 11:35:28;;;;;;;;;;;;;;;26.98;37.45;94641.47;4992456;28;9057;-39
2024/02/06 11:37:54;;;;;;;;;;;;;;;26.98;37.03;94637.97;4990333;28;7275;-39
2024/02/06 11:40:28;;;;;;;;;;;;;;;27.00;37.41;94636.19;4988393;28;9017;-38
2024/02/06 11:43:02;;;;;;;;;;;;;;;27.02;37.66;94630.91;4990945;28;8739;-39
2024/02/06 11:45:38;;;;;;;;;;;;;;;27.04;37.67;94636.66;4996608;28;8558;-41
2024/02/06 11:48:06;;;;;;;;;;;;;;;27.05;37.61;94637.41;4992384;28;7336;-40
2024/02/06 11:50:45;;;;;;;;;;;;;;;27.06;37.84;94631.34;4993117;28;9157;-39
2024/02/06 11:53:14;;;;;;;;;;;;;;;27.07;38.13;94624.59;5010347;28;7268;-40
2024/02/06 11:55:43;;;;;;;;;;;;;;;27.07;37.70;94623.84;5000560;28;7282;-39
2024/02/06 11:58:10;;;;;;;;;;;;;;;27.05;38.04;94610.56;4993421;28;9718;-39
2024/02/06 12:00:37;;;;;;;;;;;;;;;27.08;38.07;94597.72;5017800;28;7252;-39
2024/02/06 12:03:04;;;;;;;;;;;;;;;27.10;37.99;94606.25;5055464;28;7274;-39
2024/02/06 12:05:47;;;;;;;;;;;;;;;27.06;37.53;94591.94;5048778;28;7229;-39
2024/02/06 12:08:43;;;;;;;;;;;;;;;27.12;37.67;94598.91;5048033;28;7144;-40
2024/02/06 12:11:12;;;;;;;;;;;;;;;27.11;37.96;94591.91;5066899;28;7279;-39
2024/02/06 12:13:51;;;;;;;;;;;;;;;27.12;37.29;94592.69;5067013;28;7013;-39
2024/02/06 12:16:21;;;;;;;;;;;;;;;27.09;37.69;94586.16;5069652;28;9169;-39
2024/02/06 12:18:53;;;;;;;;;;;;;;;27.11;37.76;94578.13;5069001;28;9469;-38
2024/02/06 12:21:28;;;;;;;;;;;;;;;27.12;37.71;94584.38;5070835;28;7134;-38
2024/02/06 12:24:10;;;;;;;;;;;;;;;27.11;37.61;94574.59;5046478;28;7096;-39
2024/02/06 12:26:44;;;;;;;;;;;;;;;27.09;37.65;94577.88;5068090;28;9502;-39
2024/02/06 12:29:12;;;;;;;;;;;;;;;27.13;37.46;94575.59;5070819;28;7293;-39
2024/02/06 12:31:41;;;;;;;;;;;;;;;27.16;37.21;94569.03;5053677;28;6985;-39
2024/02/06 12:34:15;;;;;;;;;;;;;;;27.14;37.78;94560.53;5049904;28;9046;-40
2024/02/06 12:36:43;;;;;;;;;;;;;;;27.15;37.57;94559.25;5043595;28;7035;-39
2024/02/06 12:39:16;;;;;;;;;;;;;;;27.15;37.54;94552.97;5053376;28;7431;-39
2024/02/06 12:42:02;;;;;;;;;;;;;;;27.18;37.65;94552.69;5055722;28;7244;-40
2024/02/06 12:44:31;;;;;;;;;;;;;;;27.17;38.09;94542.91;5066283;28;9786;-40
2024/02/06 12:47:24;;;;;;;;;;;;;;;27.15;37.58;94537.16;5058873;28;7269;-39
2024/02/06 12:50:07;;;;;;;;;;;;;;;27.16;37.71;94535.91;4992001;28;8906;-40
2024/02/06 12:52:39;;;;;;;;;;;;;;;27.18;38.09;94532.63;4992568;28;7443;-39
2024/02/06 12:55:06;;;;;;;;;;;;;;;27.19;37.61;94534.84;4986118;28;9466;-40
2024/02/06 12:57:32;;;;;;;;;;;;;;;27.19;38.34;94529.31;5003398;28;9622;-40
2024/02/06 12:59:58;;;;;;;;;;;;;;;27.20;38.00;94530.09;4999789;28;7459;-41
2024/02/06 13:02:24;;;;;;;;;;;;;;;27.23;37.80;94520.78;4991182;28;7005;-40
2024/02/06 13:04:50;;;;;;;;;;;;;;;27.22;37.71;94517.25;5003603;28;8666;-41
2024/02/06 13:07:21;;;;;;;;;;;;;;;27.22;37.67;94513.75;4989169;28;7912;-38
2024/02/06 13:09:46;;;;;;;;;;;;;;;27.21;37.63;94504.69;4996169;28;7270;-39
2024/02/06 13:12:15;;;;;;;;;;;;;;;27.23;37.83;94499.41;5007915;28;6960;-39
2024/02/06 13:14:43;;;;;;;;;;;;;;;27.27;37.83;94505.41;5008118;28;6973;-40
2024/02/06 13:17:19;;;;;;;;;;;;;;;27.29;37.51;94497.34;5005392;28;7096;-41
2024/02/06 13:19:45;;;;;;;;;;;;;;;27.27;37.94;94497.13;5014474;28;6971;-40
2024/02/06 13:22:26;;;;;;;;;;;;;;;27.29;37.56;94491.81;5004758;28;7183;-39
2024/02/06 13:25:21;;;;;;;;;;;;;;;27.31;37.72;94486.53;5013724;28;7001;-39
2024/02/06 13:27:54;;;;;;;;;;;;;;;27.31;37.60;94481.00;5067814;28;9160;-39